sensor_id;sensor_type;location;lat;lon;timestamp;P1;durP1;ratioP1;P2;durP2;ratioP2
18176;SDS011;9213;50.858;3.964;2022-12-07T00:01:24;16.87;;;12.73;;
18176;SDS011;9213;50.858;3.964;2022-12-07T00:03:52;17.63;;;12.87;;
18176;SDS011;9213;50.858;3.964;2022-12-07T00:06:22;18.43;;;13.87;;
18176;SDS011;9213;50.858;3.964;2022-12-07T00:08:50;22.67;;;14.17;;
18176;SDS011;9213;50.858;3.964;2022-12-07T00:11:18;22.17;;;13.77;;
18176;SDS011;9213;50.858;3.964;2022-12-07T00:13:46;20.77;;;14.77;;
18176;SDS011;9213;50.858;3.964;2022-12-07T00:16:14;21.27;;;15.40;;
18176;SDS011;9213;50.858;3.964;2022-12-07T00:18:42;25.97;;;15.73;;
18176;SDS011;9213;50.858;3.964;2022-12-07T00:21:10;23.37;;;15.60;;
18176;SDS011;9213;50.858;3.964;2022-12-07T00:23:38;25.67;;;15.53;;
18176;SDS011;9213;50.858;3.964;2022-12-07T00:26:09;26.87;;;16.23;;
18176;SDS011;9213;50.858;3.964;2022-12-07T00:28:37;24.97;;;15.80;;
18176;SDS011;9213;50.858;3.964;2022-12-07T00:31:05;25.90;;;15.77;;
18176;SDS011;9213;50.858;3.964;2022-12-07T00:33:33;23.43;;;16.33;;
18176;SDS011;9213;50.858;3.964;2022-12-07T00:36:01;25.87;;;16.20;;
18176;SDS011;9213;50.858;3.964;2022-12-07T00:38:30;26.83;;;15.87;;
18176;SDS011;9213;50.858;3.964;2022-12-07T00:40:58;20.17;;;15.27;;
18176;SDS011;9213;50.858;3.964;2022-12-07T00:43:28;22.43;;;15.13;;
18176;SDS011;9213;50.858;3.964;2022-12-07T00:45:55;23.93;;;14.90;;
18176;SDS011;9213;50.858;3.964;2022-12-07T00:48:23;21.07;;;14.10;;
18176;SDS011;9213;50.858;3.964;2022-12-07T00:50:50;19.47;;;13.90;;
18176;SDS011;9213;50.858;3.964;2022-12-07T00:53:17;21.50;;;13.87;;
18176;SDS011;9213;50.858;3.964;2022-12-07T00:55:44;21.20;;;14.40;;
18176;SDS011;9213;50.858;3.964;2022-12-07T00:58:11;24.00;;;14.33;;
18176;SDS011;9213;50.858;3.964;2022-12-07T01:00:40;24.93;;;14.43;;
18176;SDS011;9213;50.858;3.964;2022-12-07T01:03:09;19.77;;;13.77;;
18176;SDS011;9213;50.858;3.964;2022-12-07T01:05:38;22.03;;;13.93;;
18176;SDS011;9213;50.858;3.964;2022-12-07T01:08:06;20.20;;;12.20;;
18176;SDS011;9213;50.858;3.964;2022-12-07T01:10:33;19.47;;;13.13;;
18176;SDS011;9213;50.858;3.964;2022-12-07T01:13:00;16.73;;;12.00;;
18176;SDS011;9213;50.858;3.964;2022-12-07T01:15:27;20.10;;;13.20;;
18176;SDS011;9213;50.858;3.964;2022-12-07T01:17:55;20.43;;;13.03;;
18176;SDS011;9213;50.858;3.964;2022-12-07T01:20:22;18.60;;;12.63;;
18176;SDS011;9213;50.858;3.964;2022-12-07T01:22:49;19.37;;;12.47;;
18176;SDS011;9213;50.858;3.964;2022-12-07T01:25:16;21.90;;;12.37;;
18176;SDS011;9213;50.858;3.964;2022-12-07T01:27:43;19.80;;;11.13;;
18176;SDS011;9213;50.858;3.964;2022-12-07T01:30:10;16.57;;;10.83;;
18176;SDS011;9213;50.858;3.964;2022-12-07T01:32:38;19.07;;;11.20;;
18176;SDS011;9213;50.858;3.964;2022-12-07T01:35:06;17.97;;;10.83;;
18176;SDS011;9213;50.858;3.964;2022-12-07T01:37:34;16.87;;;10.73;;
18176;SDS011;9213;50.858;3.964;2022-12-07T01:40:02;17.60;;;10.67;;
18176;SDS011;9213;50.858;3.964;2022-12-07T01:42:30;16.77;;;10.73;;
18176;SDS011;9213;50.858;3.964;2022-12-07T01:48:02;19.40;;;11.17;;
18176;SDS011;9213;50.858;3.964;2022-12-07T01:50:33;18.77;;;11.23;;
18176;SDS011;9213;50.858;3.964;2022-12-07T01:53:02;18.83;;;12.33;;
18176;SDS011;9213;50.858;3.964;2022-12-07T01:55:32;17.33;;;11.80;;
18176;SDS011;9213;50.858;3.964;2022-12-07T01:58:02;19.30;;;11.60;;
18176;SDS011;9213;50.858;3.964;2022-12-07T02:00:29;19.93;;;13.00;;
18176;SDS011;9213;50.858;3.964;2022-12-07T02:02:57;19.73;;;12.67;;
18176;SDS011;9213;50.858;3.964;2022-12-07T02:05:30;20.33;;;13.30;;
18176;SDS011;9213;50.858;3.964;2022-12-07T02:07:59;23.20;;;12.20;;
18176;SDS011;9213;50.858;3.964;2022-12-07T02:10:27;20.30;;;13.03;;
18176;SDS011;9213;50.858;3.964;2022-12-07T02:12:56;19.90;;;13.20;;
18176;SDS011;9213;50.858;3.964;2022-12-07T02:15:28;22.23;;;12.47;;
18176;SDS011;9213;50.858;3.964;2022-12-07T02:18:05;22.63;;;11.93;;
18176;SDS011;9213;50.858;3.964;2022-12-07T02:20:39;18.43;;;12.70;;
18176;SDS011;9213;50.858;3.964;2022-12-07T02:29:13;22.83;;;13.10;;
18176;SDS011;9213;50.858;3.964;2022-12-07T02:31:46;20.93;;;13.93;;
18176;SDS011;9213;50.858;3.964;2022-12-07T02:34:25;21.20;;;13.57;;
18176;SDS011;9213;50.858;3.964;2022-12-07T02:37:02;20.40;;;13.47;;
18176;SDS011;9213;50.858;3.964;2022-12-07T02:39:37;23.83;;;13.23;;
18176;SDS011;9213;50.858;3.964;2022-12-07T02:42:12;21.77;;;13.07;;
18176;SDS011;9213;50.858;3.964;2022-12-07T02:44:45;18.40;;;11.83;;
18176;SDS011;9213;50.858;3.964;2022-12-07T02:47:14;19.67;;;12.10;;
18176;SDS011;9213;50.858;3.964;2022-12-07T02:49:43;21.17;;;13.27;;
18176;SDS011;9213;50.858;3.964;2022-12-07T02:52:11;23.70;;;12.60;;
18176;SDS011;9213;50.858;3.964;2022-12-07T02:54:38;16.93;;;12.47;;
18176;SDS011;9213;50.858;3.964;2022-12-07T02:57:07;21.73;;;12.70;;
18176;SDS011;9213;50.858;3.964;2022-12-07T02:59:50;22.60;;;12.77;;
18176;SDS011;9213;50.858;3.964;2022-12-07T03:02:27;21.90;;;12.93;;
18176;SDS011;9213;50.858;3.964;2022-12-07T03:05:04;20.90;;;12.60;;
18176;SDS011;9213;50.858;3.964;2022-12-07T03:07:43;23.70;;;14.33;;
18176;SDS011;9213;50.858;3.964;2022-12-07T03:10:19;27.13;;;14.63;;
18176;SDS011;9213;50.858;3.964;2022-12-07T03:12:55;23.00;;;14.00;;
18176;SDS011;9213;50.858;3.964;2022-12-07T03:15:31;25.63;;;14.57;;
18176;SDS011;9213;50.858;3.964;2022-12-07T03:18:01;25.43;;;14.40;;
18176;SDS011;9213;50.858;3.964;2022-12-07T03:20:30;21.80;;;14.53;;
18176;SDS011;9213;50.858;3.964;2022-12-07T03:23:00;22.20;;;14.00;;
18176;SDS011;9213;50.858;3.964;2022-12-07T03:25:29;27.13;;;14.83;;
18176;SDS011;9213;50.858;3.964;2022-12-07T03:27:56;26.33;;;14.47;;
18176;SDS011;9213;50.858;3.964;2022-12-07T03:30:27;23.60;;;14.17;;
18176;SDS011;9213;50.858;3.964;2022-12-07T03:32:59;23.97;;;14.47;;
18176;SDS011;9213;50.858;3.964;2022-12-07T03:35:33;23.80;;;13.43;;
18176;SDS011;9213;50.858;3.964;2022-12-07T03:38:05;23.73;;;14.10;;
18176;SDS011;9213;50.858;3.964;2022-12-07T03:40:40;24.87;;;13.10;;
18176;SDS011;9213;50.858;3.964;2022-12-07T03:43:14;24.30;;;13.53;;
18176;SDS011;9213;50.858;3.964;2022-12-07T03:45:45;20.50;;;13.80;;
18176;SDS011;9213;50.858;3.964;2022-12-07T03:48:24;27.77;;;14.53;;
18176;SDS011;9213;50.858;3.964;2022-12-07T03:51:00;22.43;;;14.37;;
18176;SDS011;9213;50.858;3.964;2022-12-07T03:53:31;25.03;;;13.93;;
18176;SDS011;9213;50.858;3.964;2022-12-07T03:56:04;22.70;;;13.57;;
18176;SDS011;9213;50.858;3.964;2022-12-07T03:58:32;23.83;;;13.80;;
18176;SDS011;9213;50.858;3.964;2022-12-07T04:01:01;21.43;;;13.30;;
18176;SDS011;9213;50.858;3.964;2022-12-07T04:03:28;23.73;;;14.37;;
18176;SDS011;9213;50.858;3.964;2022-12-07T04:05:55;24.87;;;14.20;;
18176;SDS011;9213;50.858;3.964;2022-12-07T04:08:23;23.23;;;13.50;;
18176;SDS011;9213;50.858;3.964;2022-12-07T04:10:51;24.53;;;14.30;;
18176;SDS011;9213;50.858;3.964;2022-12-07T04:13:18;24.10;;;13.97;;
18176;SDS011;9213;50.858;3.964;2022-12-07T04:15:45;20.93;;;12.97;;
18176;SDS011;9213;50.858;3.964;2022-12-07T04:18:13;18.30;;;12.33;;
18176;SDS011;9213;50.858;3.964;2022-12-07T04:20:40;18.30;;;12.57;;
18176;SDS011;9213;50.858;3.964;2022-12-07T04:23:07;21.30;;;12.50;;
18176;SDS011;9213;50.858;3.964;2022-12-07T04:25:34;24.23;;;12.07;;
18176;SDS011;9213;50.858;3.964;2022-12-07T04:28:01;20.40;;;12.73;;
18176;SDS011;9213;50.858;3.964;2022-12-07T04:30:27;22.40;;;12.67;;
18176;SDS011;9213;50.858;3.964;2022-12-07T04:32:54;18.90;;;12.07;;
18176;SDS011;9213;50.858;3.964;2022-12-07T04:35:23;21.53;;;11.90;;
18176;SDS011;9213;50.858;3.964;2022-12-07T04:37:49;25.93;;;12.40;;
18176;SDS011;9213;50.858;3.964;2022-12-07T04:40:16;22.87;;;12.00;;
18176;SDS011;9213;50.858;3.964;2022-12-07T04:42:43;18.43;;;11.87;;
18176;SDS011;9213;50.858;3.964;2022-12-07T04:45:10;17.80;;;12.20;;
18176;SDS011;9213;50.858;3.964;2022-12-07T04:47:37;19.70;;;12.50;;
18176;SDS011;9213;50.858;3.964;2022-12-07T04:50:04;20.67;;;11.77;;
18176;SDS011;9213;50.858;3.964;2022-12-07T04:52:33;16.93;;;11.40;;
18176;SDS011;9213;50.858;3.964;2022-12-07T04:55:00;19.93;;;12.53;;
18176;SDS011;9213;50.858;3.964;2022-12-07T04:57:27;19.60;;;12.03;;
18176;SDS011;9213;50.858;3.964;2022-12-07T04:59:54;18.47;;;12.10;;
18176;SDS011;9213;50.858;3.964;2022-12-07T05:02:21;18.33;;;11.60;;
18176;SDS011;9213;50.858;3.964;2022-12-07T05:04:48;18.67;;;12.33;;
18176;SDS011;9213;50.858;3.964;2022-12-07T05:07:14;18.13;;;12.27;;
18176;SDS011;9213;50.858;3.964;2022-12-07T05:09:43;19.57;;;12.70;;
18176;SDS011;9213;50.858;3.964;2022-12-07T05:12:09;18.83;;;12.07;;
18176;SDS011;9213;50.858;3.964;2022-12-07T05:14:36;27.80;;;13.23;;
18176;SDS011;9213;50.858;3.964;2022-12-07T05:17:03;17.80;;;12.17;;
18176;SDS011;9213;50.858;3.964;2022-12-07T05:19:30;22.70;;;12.43;;
18176;SDS011;9213;50.858;3.964;2022-12-07T05:21:57;23.53;;;12.30;;
18176;SDS011;9213;50.858;3.964;2022-12-07T05:24:24;23.00;;;12.40;;
18176;SDS011;9213;50.858;3.964;2022-12-07T05:26:52;22.13;;;12.53;;
18176;SDS011;9213;50.858;3.964;2022-12-07T05:29:19;24.30;;;12.63;;
18176;SDS011;9213;50.858;3.964;2022-12-07T05:31:46;24.73;;;13.23;;
18176;SDS011;9213;50.858;3.964;2022-12-07T05:34:12;25.43;;;12.87;;
18176;SDS011;9213;50.858;3.964;2022-12-07T05:36:39;21.30;;;13.53;;
18176;SDS011;9213;50.858;3.964;2022-12-07T05:39:07;26.43;;;13.90;;
18176;SDS011;9213;50.858;3.964;2022-12-07T05:41:34;26.30;;;15.73;;
18176;SDS011;9213;50.858;3.964;2022-12-07T05:44:20;29.17;;;17.00;;
18176;SDS011;9213;50.858;3.964;2022-12-07T05:46:47;28.33;;;15.67;;
18176;SDS011;9213;50.858;3.964;2022-12-07T05:49:14;26.47;;;15.70;;
18176;SDS011;9213;50.858;3.964;2022-12-07T05:51:41;26.60;;;15.83;;
18176;SDS011;9213;50.858;3.964;2022-12-07T05:54:08;28.03;;;15.77;;
18176;SDS011;9213;50.858;3.964;2022-12-07T05:56:35;27.37;;;15.83;;
18176;SDS011;9213;50.858;3.964;2022-12-07T05:59:02;23.80;;;14.77;;
18176;SDS011;9213;50.858;3.964;2022-12-07T06:01:47;27.37;;;15.30;;
18176;SDS011;9213;50.858;3.964;2022-12-07T06:04:14;26.60;;;13.73;;
18176;SDS011;9213;50.858;3.964;2022-12-07T06:06:41;25.87;;;14.07;;
18176;SDS011;9213;50.858;3.964;2022-12-07T06:09:08;25.13;;;14.03;;
18176;SDS011;9213;50.858;3.964;2022-12-07T06:11:36;20.97;;;13.97;;
18176;SDS011;9213;50.858;3.964;2022-12-07T06:14:20;22.70;;;13.60;;
18176;SDS011;9213;50.858;3.964;2022-12-07T06:16:49;23.17;;;13.30;;
18176;SDS011;9213;50.858;3.964;2022-12-07T06:19:16;26.73;;;12.73;;
18176;SDS011;9213;50.858;3.964;2022-12-07T06:21:43;23.00;;;11.70;;
18176;SDS011;9213;50.858;3.964;2022-12-07T06:24:10;21.07;;;12.00;;
18176;SDS011;9213;50.858;3.964;2022-12-07T06:26:38;18.37;;;11.60;;
18176;SDS011;9213;50.858;3.964;2022-12-07T06:29:04;19.53;;;11.67;;
18176;SDS011;9213;50.858;3.964;2022-12-07T06:31:32;17.13;;;10.90;;
18176;SDS011;9213;50.858;3.964;2022-12-07T06:34:00;20.87;;;11.73;;
18176;SDS011;9213;50.858;3.964;2022-12-07T06:36:28;18.80;;;10.47;;
18176;SDS011;9213;50.858;3.964;2022-12-07T06:38:55;21.20;;;10.43;;
18176;SDS011;9213;50.858;3.964;2022-12-07T06:41:22;20.80;;;10.37;;
18176;SDS011;9213;50.858;3.964;2022-12-07T06:43:49;17.73;;;10.33;;
18176;SDS011;9213;50.858;3.964;2022-12-07T06:46:16;16.90;;;10.30;;
18176;SDS011;9213;50.858;3.964;2022-12-07T06:48:43;20.70;;;10.50;;
18176;SDS011;9213;50.858;3.964;2022-12-07T06:51:11;17.20;;;9.47;;
18176;SDS011;9213;50.858;3.964;2022-12-07T06:53:38;14.80;;;9.70;;
18176;SDS011;9213;50.858;3.964;2022-12-07T06:56:06;14.40;;;9.60;;
18176;SDS011;9213;50.858;3.964;2022-12-07T06:58:33;15.30;;;10.07;;
18176;SDS011;9213;50.858;3.964;2022-12-07T07:01:00;24.20;;;12.60;;
18176;SDS011;9213;50.858;3.964;2022-12-07T07:03:28;20.90;;;13.30;;
18176;SDS011;9213;50.858;3.964;2022-12-07T07:05:54;22.00;;;12.97;;
18176;SDS011;9213;50.858;3.964;2022-12-07T07:08:23;24.47;;;12.63;;
18176;SDS011;9213;50.858;3.964;2022-12-07T07:10:50;19.77;;;13.17;;
18176;SDS011;9213;50.858;3.964;2022-12-07T07:13:16;24.70;;;14.70;;
18176;SDS011;9213;50.858;3.964;2022-12-07T07:15:44;26.43;;;15.27;;
18176;SDS011;9213;50.858;3.964;2022-12-07T07:18:10;30.37;;;15.77;;
18176;SDS011;9213;50.858;3.964;2022-12-07T07:20:38;22.87;;;14.53;;
18176;SDS011;9213;50.858;3.964;2022-12-07T07:23:05;25.73;;;15.30;;
18176;SDS011;9213;50.858;3.964;2022-12-07T07:25:34;23.93;;;15.17;;
18176;SDS011;9213;50.858;3.964;2022-12-07T07:28:01;26.77;;;15.43;;
18176;SDS011;9213;50.858;3.964;2022-12-07T07:30:28;19.13;;;14.27;;
18176;SDS011;9213;50.858;3.964;2022-12-07T07:32:56;26.00;;;14.80;;
18176;SDS011;9213;50.858;3.964;2022-12-07T07:35:23;29.33;;;15.37;;
18176;SDS011;9213;50.858;3.964;2022-12-07T07:37:50;19.23;;;14.00;;
18176;SDS011;9213;50.858;3.964;2022-12-07T07:40:17;22.90;;;14.67;;
18176;SDS011;9213;50.858;3.964;2022-12-07T07:42:47;26.77;;;15.73;;
18176;SDS011;9213;50.858;3.964;2022-12-07T07:45:15;25.00;;;15.07;;
18176;SDS011;9213;50.858;3.964;2022-12-07T07:47:42;29.17;;;15.70;;
18176;SDS011;9213;50.858;3.964;2022-12-07T07:50:09;21.40;;;15.23;;
18176;SDS011;9213;50.858;3.964;2022-12-07T07:52:37;22.57;;;14.73;;
18176;SDS011;9213;50.858;3.964;2022-12-07T07:55:04;24.87;;;15.90;;
18176;SDS011;9213;50.858;3.964;2022-12-07T07:57:33;25.03;;;14.77;;
18176;SDS011;9213;50.858;3.964;2022-12-07T08:00:02;25.90;;;14.90;;
18176;SDS011;9213;50.858;3.964;2022-12-07T08:02:30;28.87;;;14.63;;
18176;SDS011;9213;50.858;3.964;2022-12-07T08:04:57;19.80;;;12.97;;
18176;SDS011;9213;50.858;3.964;2022-12-07T08:07:24;24.43;;;13.23;;
18176;SDS011;9213;50.858;3.964;2022-12-07T08:09:52;18.70;;;11.97;;
18176;SDS011;9213;50.858;3.964;2022-12-07T08:12:19;17.03;;;11.10;;
18176;SDS011;9213;50.858;3.964;2022-12-07T08:14:46;50.50;;;24.87;;
18176;SDS011;9213;50.858;3.964;2022-12-07T08:17:15;27.80;;;14.97;;
18176;SDS011;9213;50.858;3.964;2022-12-07T08:19:41;17.00;;;12.77;;
18176;SDS011;9213;50.858;3.964;2022-12-07T08:22:08;23.40;;;12.13;;
18176;SDS011;9213;50.858;3.964;2022-12-07T08:24:35;18.60;;;12.60;;
18176;SDS011;9213;50.858;3.964;2022-12-07T08:27:02;22.50;;;12.33;;
18176;SDS011;9213;50.858;3.964;2022-12-07T08:29:29;22.10;;;13.93;;
18176;SDS011;9213;50.858;3.964;2022-12-07T08:31:56;21.77;;;11.73;;
18176;SDS011;9213;50.858;3.964;2022-12-07T08:34:27;22.43;;;13.20;;
18176;SDS011;9213;50.858;3.964;2022-12-07T08:36:53;16.87;;;11.93;;
18176;SDS011;9213;50.858;3.964;2022-12-07T08:39:20;19.03;;;11.60;;
18176;SDS011;9213;50.858;3.964;2022-12-07T08:41:47;15.13;;;10.20;;
18176;SDS011;9213;50.858;3.964;2022-12-07T08:44:14;13.87;;;8.93;;
18176;SDS011;9213;50.858;3.964;2022-12-07T08:46:41;11.67;;;8.53;;
18176;SDS011;9213;50.858;3.964;2022-12-07T08:49:13;13.40;;;8.47;;
18176;SDS011;9213;50.858;3.964;2022-12-07T08:51:44;14.73;;;8.40;;
18176;SDS011;9213;50.858;3.964;2022-12-07T08:54:11;11.40;;;7.30;;
18176;SDS011;9213;50.858;3.964;2022-12-07T08:56:41;12.77;;;6.50;;
18176;SDS011;9213;50.858;3.964;2022-12-07T08:59:09;11.57;;;6.80;;
18176;SDS011;9213;50.858;3.964;2022-12-07T09:01:36;10.03;;;6.03;;
18176;SDS011;9213;50.858;3.964;2022-12-07T09:04:03;11.07;;;7.00;;
18176;SDS011;9213;50.858;3.964;2022-12-07T09:06:30;9.03;;;6.00;;
18176;SDS011;9213;50.858;3.964;2022-12-07T09:08:59;12.53;;;7.17;;
18176;SDS011;9213;50.858;3.964;2022-12-07T09:11:27;16.80;;;8.07;;
18176;SDS011;9213;50.858;3.964;2022-12-07T09:13:54;13.73;;;7.77;;
18176;SDS011;9213;50.858;3.964;2022-12-07T09:16:21;13.57;;;8.70;;
18176;SDS011;9213;50.858;3.964;2022-12-07T09:18:48;11.17;;;8.40;;
18176;SDS011;9213;50.858;3.964;2022-12-07T09:21:15;12.67;;;9.20;;
18176;SDS011;9213;50.858;3.964;2022-12-07T09:23:42;17.20;;;10.40;;
18176;SDS011;9213;50.858;3.964;2022-12-07T09:26:10;14.40;;;9.40;;
18176;SDS011;9213;50.858;3.964;2022-12-07T09:28:38;9.10;;;7.67;;
18176;SDS011;9213;50.858;3.964;2022-12-07T09:31:05;12.07;;;7.67;;
18176;SDS011;9213;50.858;3.964;2022-12-07T09:33:32;12.50;;;7.10;;
18176;SDS011;9213;50.858;3.964;2022-12-07T09:35:58;12.50;;;7.40;;
18176;SDS011;9213;50.858;3.964;2022-12-07T09:38:25;11.30;;;7.07;;
18176;SDS011;9213;50.858;3.964;2022-12-07T09:40:54;12.43;;;7.53;;
18176;SDS011;9213;50.858;3.964;2022-12-07T09:43:24;10.43;;;6.60;;
18176;SDS011;9213;50.858;3.964;2022-12-07T09:45:52;9.97;;;6.03;;
18176;SDS011;9213;50.858;3.964;2022-12-07T09:48:21;8.80;;;6.23;;
18176;SDS011;9213;50.858;3.964;2022-12-07T09:50:52;12.03;;;6.10;;
18176;SDS011;9213;50.858;3.964;2022-12-07T09:53:23;7.80;;;5.13;;
18176;SDS011;9213;50.858;3.964;2022-12-07T09:55:53;7.30;;;4.90;;
18176;SDS011;9213;50.858;3.964;2022-12-07T09:58:20;10.87;;;5.60;;
18176;SDS011;9213;50.858;3.964;2022-12-07T10:03:22;7.90;;;5.67;;
18176;SDS011;9213;50.858;3.964;2022-12-07T10:05:50;8.00;;;5.20;;
18176;SDS011;9213;50.858;3.964;2022-12-07T10:08:18;12.53;;;5.07;;
18176;SDS011;9213;50.858;3.964;2022-12-07T10:10:46;11.57;;;4.90;;
18176;SDS011;9213;50.858;3.964;2022-12-07T10:13:19;6.10;;;4.47;;
18176;SDS011;9213;50.858;3.964;2022-12-07T10:15:48;8.87;;;4.80;;
18176;SDS011;9213;50.858;3.964;2022-12-07T10:18:26;7.43;;;4.90;;
18176;SDS011;9213;50.858;3.964;2022-12-07T10:21:05;6.80;;;4.53;;
18176;SDS011;9213;50.858;3.964;2022-12-07T10:23:39;9.27;;;4.43;;
18176;SDS011;9213;50.858;3.964;2022-12-07T10:26:20;9.40;;;4.20;;
18176;SDS011;9213;50.858;3.964;2022-12-07T10:28:53;6.53;;;4.20;;
18176;SDS011;9213;50.858;3.964;2022-12-07T10:31:21;7.73;;;4.13;;
18176;SDS011;9213;50.858;3.964;2022-12-07T10:33:51;8.57;;;3.63;;
18176;SDS011;9213;50.858;3.964;2022-12-07T10:36:21;6.57;;;3.10;;
18176;SDS011;9213;50.858;3.964;2022-12-07T10:38:51;8.73;;;3.43;;
18176;SDS011;9213;50.858;3.964;2022-12-07T10:41:19;5.70;;;3.10;;
18176;SDS011;9213;50.858;3.964;2022-12-07T10:43:47;6.27;;;3.50;;
18176;SDS011;9213;50.858;3.964;2022-12-07T10:52:16;6.00;;;3.37;;
18176;SDS011;9213;50.858;3.964;2022-12-07T10:54:55;6.53;;;4.50;;
18176;SDS011;9213;50.858;3.964;2022-12-07T10:57:35;8.90;;;4.40;;
18176;SDS011;9213;50.858;3.964;2022-12-07T11:00:14;6.83;;;4.37;;
18176;SDS011;9213;50.858;3.964;2022-12-07T11:02:49;9.60;;;5.00;;
18176;SDS011;9213;50.858;3.964;2022-12-07T11:05:44;12.13;;;5.23;;
18176;SDS011;9213;50.858;3.964;2022-12-07T11:08:18;7.00;;;4.60;;
18176;SDS011;9213;50.858;3.964;2022-12-07T11:10:55;12.03;;;4.20;;
18176;SDS011;9213;50.858;3.964;2022-12-07T11:13:28;9.40;;;4.03;;
18176;SDS011;9213;50.858;3.964;2022-12-07T11:16:13;8.57;;;5.00;;
18176;SDS011;9213;50.858;3.964;2022-12-07T11:18:50;7.47;;;3.70;;
18176;SDS011;9213;50.858;3.964;2022-12-07T11:21:27;9.63;;;4.30;;
18176;SDS011;9213;50.858;3.964;2022-12-07T11:24:01;8.93;;;3.90;;
18176;SDS011;9213;50.858;3.964;2022-12-07T11:26:40;5.77;;;3.80;;
18176;SDS011;9213;50.858;3.964;2022-12-07T11:29:19;6.83;;;3.90;;
18176;SDS011;9213;50.858;3.964;2022-12-07T11:31:58;8.50;;;4.07;;
18176;SDS011;9213;50.858;3.964;2022-12-07T11:34:34;7.00;;;3.77;;
18176;SDS011;9213;50.858;3.964;2022-12-07T11:37:08;9.07;;;3.47;;
18176;SDS011;9213;50.858;3.964;2022-12-07T11:39:41;9.87;;;3.77;;
18176;SDS011;9213;50.858;3.964;2022-12-07T11:42:14;9.37;;;4.13;;
18176;SDS011;9213;50.858;3.964;2022-12-07T11:44:49;9.73;;;4.53;;
18176;SDS011;9213;50.858;3.964;2022-12-07T11:47:20;11.53;;;5.07;;
18176;SDS011;9213;50.858;3.964;2022-12-07T11:49:54;12.27;;;4.70;;
18176;SDS011;9213;50.858;3.964;2022-12-07T11:52:27;8.93;;;4.97;;
18176;SDS011;9213;50.858;3.964;2022-12-07T11:54:58;12.20;;;5.20;;
18176;SDS011;9213;50.858;3.964;2022-12-07T11:57:31;9.00;;;6.00;;
18176;SDS011;9213;50.858;3.964;2022-12-07T12:00:05;10.20;;;5.63;;
18176;SDS011;9213;50.858;3.964;2022-12-07T12:02:39;7.87;;;6.00;;
18176;SDS011;9213;50.858;3.964;2022-12-07T12:05:13;9.70;;;6.00;;
18176;SDS011;9213;50.858;3.964;2022-12-07T12:07:44;12.27;;;6.03;;
18176;SDS011;9213;50.858;3.964;2022-12-07T12:10:17;12.70;;;6.17;;
18176;SDS011;9213;50.858;3.964;2022-12-07T12:12:55;10.03;;;5.37;;
18176;SDS011;9213;50.858;3.964;2022-12-07T12:15:53;10.50;;;6.10;;
18176;SDS011;9213;50.858;3.964;2022-12-07T12:18:36;11.63;;;5.20;;
18176;SDS011;9213;50.858;3.964;2022-12-07T12:21:15;10.03;;;5.53;;
18176;SDS011;9213;50.858;3.964;2022-12-07T12:23:47;9.90;;;5.47;;
18176;SDS011;9213;50.858;3.964;2022-12-07T12:26:17;9.37;;;5.63;;
18176;SDS011;9213;50.858;3.964;2022-12-07T12:28:50;11.30;;;5.30;;
18176;SDS011;9213;50.858;3.964;2022-12-07T12:31:36;7.23;;;5.47;;
18176;SDS011;9213;50.858;3.964;2022-12-07T12:34:29;6.80;;;4.87;;
18176;SDS011;9213;50.858;3.964;2022-12-07T12:36:59;7.80;;;4.10;;
18176;SDS011;9213;50.858;3.964;2022-12-07T12:39:27;6.00;;;4.40;;
18176;SDS011;9213;50.858;3.964;2022-12-07T12:41:58;8.90;;;4.40;;
18176;SDS011;9213;50.858;3.964;2022-12-07T12:47:56;6.13;;;4.43;;
18176;SDS011;9213;50.858;3.964;2022-12-07T12:50:24;8.23;;;4.53;;
18176;SDS011;9213;50.858;3.964;2022-12-07T12:52:55;10.23;;;4.80;;
18176;SDS011;9213;50.858;3.964;2022-12-07T12:55:42;10.40;;;5.37;;
18176;SDS011;9213;50.858;3.964;2022-12-07T12:58:33;10.73;;;5.30;;
18176;SDS011;9213;50.858;3.964;2022-12-07T13:04:24;8.37;;;5.00;;
18176;SDS011;9213;50.858;3.964;2022-12-07T13:07:01;7.20;;;4.67;;
18176;SDS011;9213;50.858;3.964;2022-12-07T13:09:29;15.33;;;6.00;;
18176;SDS011;9213;50.858;3.964;2022-12-07T13:12:01;6.60;;;3.97;;
18176;SDS011;9213;50.858;3.964;2022-12-07T13:14:53;6.87;;;3.50;;
18176;SDS011;9213;50.858;3.964;2022-12-07T13:20:40;4.67;;;3.33;;
18176;SDS011;9213;50.858;3.964;2022-12-07T13:23:10;4.63;;;3.20;;
18176;SDS011;9213;50.858;3.964;2022-12-07T13:25:45;5.87;;;3.07;;
18176;SDS011;9213;50.858;3.964;2022-12-07T13:28:31;5.30;;;4.03;;
18176;SDS011;9213;50.858;3.964;2022-12-07T13:31:14;5.37;;;3.33;;
18176;SDS011;9213;50.858;3.964;2022-12-07T13:33:49;4.50;;;3.17;;
18176;SDS011;9213;50.858;3.964;2022-12-07T13:36:20;4.80;;;3.27;;
18176;SDS011;9213;50.858;3.964;2022-12-07T13:38:51;4.00;;;2.90;;
18176;SDS011;9213;50.858;3.964;2022-12-07T13:41:19;5.80;;;2.87;;
18176;SDS011;9213;50.858;3.964;2022-12-07T13:44:00;6.73;;;2.87;;
18176;SDS011;9213;50.858;3.964;2022-12-07T13:46:40;5.27;;;2.47;;
18176;SDS011;9213;50.858;3.964;2022-12-07T13:49:15;6.83;;;2.60;;
18176;SDS011;9213;50.858;3.964;2022-12-07T13:51:44;4.97;;;2.80;;
18176;SDS011;9213;50.858;3.964;2022-12-07T13:54:12;6.20;;;2.87;;
18176;SDS011;9213;50.858;3.964;2022-12-07T13:56:40;4.93;;;3.37;;
18176;SDS011;9213;50.858;3.964;2022-12-07T13:59:12;6.03;;;3.10;;
18176;SDS011;9213;50.858;3.964;2022-12-07T14:01:42;9.77;;;3.33;;
18176;SDS011;9213;50.858;3.964;2022-12-07T14:04:17;3.67;;;2.80;;
18176;SDS011;9213;50.858;3.964;2022-12-07T14:06:49;11.47;;;3.50;;
18176;SDS011;9213;50.858;3.964;2022-12-07T14:09:18;6.90;;;2.63;;
18176;SDS011;9213;50.858;3.964;2022-12-07T14:11:47;4.80;;;2.70;;
18176;SDS011;9213;50.858;3.964;2022-12-07T14:14:19;3.90;;;2.97;;
18176;SDS011;9213;50.858;3.964;2022-12-07T14:16:58;2.70;;;2.40;;
18176;SDS011;9213;50.858;3.964;2022-12-07T14:19:44;2.83;;;2.40;;
18176;SDS011;9213;50.858;3.964;2022-12-07T14:22:30;3.50;;;2.30;;
18176;SDS011;9213;50.858;3.964;2022-12-07T14:25:00;4.07;;;2.60;;
18176;SDS011;9213;50.858;3.964;2022-12-07T14:27:30;5.90;;;3.50;;
18176;SDS011;9213;50.858;3.964;2022-12-07T14:30:03;4.97;;;3.00;;
18176;SDS011;9213;50.858;3.964;2022-12-07T14:32:35;3.67;;;3.13;;
18176;SDS011;9213;50.858;3.964;2022-12-07T14:35:08;4.67;;;3.80;;
18176;SDS011;9213;50.858;3.964;2022-12-07T14:37:37;3.97;;;3.00;;
18176;SDS011;9213;50.858;3.964;2022-12-07T14:40:06;5.03;;;2.73;;
18176;SDS011;9213;50.858;3.964;2022-12-07T14:42:34;4.17;;;2.63;;
18176;SDS011;9213;50.858;3.964;2022-12-07T14:45:03;4.33;;;2.37;;
18176;SDS011;9213;50.858;3.964;2022-12-07T14:47:30;4.73;;;2.33;;
18176;SDS011;9213;50.858;3.964;2022-12-07T14:49:57;3.63;;;2.27;;
18176;SDS011;9213;50.858;3.964;2022-12-07T14:52:24;5.77;;;2.23;;
18176;SDS011;9213;50.858;3.964;2022-12-07T14:54:55;2.53;;;2.33;;
18176;SDS011;9213;50.858;3.964;2022-12-07T14:57:22;4.50;;;2.43;;
18176;SDS011;9213;50.858;3.964;2022-12-07T14:59:49;4.20;;;2.63;;
18176;SDS011;9213;50.858;3.964;2022-12-07T15:02:17;5.90;;;2.60;;
18176;SDS011;9213;50.858;3.964;2022-12-07T15:04:44;4.73;;;2.67;;
18176;SDS011;9213;50.858;3.964;2022-12-07T15:07:13;3.40;;;3.03;;
18176;SDS011;9213;50.858;3.964;2022-12-07T15:09:44;4.63;;;2.87;;
18176;SDS011;9213;50.858;3.964;2022-12-07T15:12:11;5.07;;;2.97;;
18176;SDS011;9213;50.858;3.964;2022-12-07T15:14:38;5.13;;;3.13;;
18176;SDS011;9213;50.858;3.964;2022-12-07T15:17:05;6.33;;;3.30;;
18176;SDS011;9213;50.858;3.964;2022-12-07T15:19:33;4.13;;;3.10;;
18176;SDS011;9213;50.858;3.964;2022-12-07T15:22:00;7.93;;;3.60;;
18176;SDS011;9213;50.858;3.964;2022-12-07T15:24:27;4.80;;;3.37;;
18176;SDS011;9213;50.858;3.964;2022-12-07T15:26:54;9.57;;;3.50;;
18176;SDS011;9213;50.858;3.964;2022-12-07T15:29:21;10.23;;;4.23;;